createdAt,value
2022-09-07T00:00:52.093Z,99.90
2022-09-07T00:03:20.554Z,99.90
2022-09-07T00:05:49.385Z,99.90
2022-09-07T00:08:18.658Z,99.90
2022-09-07T00:10:57.282Z,99.90
2022-09-07T00:13:26.057Z,99.90
2022-09-07T00:15:52.872Z,99.90
2022-09-07T00:18:20.888Z,99.90
2022-09-07T00:20:47.866Z,99.90
2022-09-07T00:23:15.258Z,99.90
2022-09-07T00:25:42.027Z,99.90
2022-09-07T00:28:09.533Z,99.90
2022-09-07T00:30:41.708Z,99.90
2022-09-07T00:33:10.187Z,99.90
2022-09-07T00:35:41.359Z,99.90
2022-09-07T00:38:08.870Z,99.90
2022-09-07T00:40:36.210Z,99.90
2022-09-07T00:43:04.562Z,99.90
2022-09-07T00:45:31.934Z,99.90
2022-09-07T00:48:15.020Z,99.90
2022-09-07T00:50:47.530Z,99.90
2022-09-07T00:53:26.796Z,99.90
2022-09-07T00:55:54.475Z,99.90
2022-09-07T00:58:23.554Z,99.90
2022-09-07T01:00:50.957Z,99.90
2022-09-07T01:03:24.275Z,99.90
2022-09-07T01:05:55.248Z,99.90
2022-09-07T01:08:25.504Z,99.90
2022-09-07T01:10:52.332Z,99.90
2022-09-07T01:13:19.705Z,99.90
2022-09-07T01:16:06.085Z,99.90
2022-09-07T01:18:51.524Z,99.90
2022-09-07T01:21:26.921Z,99.90
2022-09-07T01:24:14.311Z,99.90
2022-09-07T01:27:23.235Z,99.90
2022-09-07T01:30:03.120Z,99.90
2022-09-07T01:32:49.664Z,99.90
2022-09-07T01:35:39.872Z,99.90
2022-09-07T01:38:28.462Z,99.90
2022-09-07T01:41:21.788Z,99.90
2022-09-07T01:44:03.830Z,99.90
2022-09-07T01:46:36.237Z,99.90
2022-09-07T01:49:12.170Z,99.90
2022-09-07T01:51:43.285Z,99.90
2022-09-07T01:54:29.069Z,99.90
2022-09-07T01:57:10.481Z,99.90
2022-09-07T01:59:52.848Z,99.90
2022-09-07T02:02:30.732Z,99.90
2022-09-07T02:05:08.581Z,99.90
2022-09-07T02:07:48.809Z,99.90
2022-09-07T02:10:32.475Z,99.90
2022-09-07T02:13:10.372Z,99.90
2022-09-07T02:16:07.303Z,99.90
2022-09-07T02:18:46.750Z,99.90
2022-09-07T02:21:17.791Z,99.90
2022-09-07T02:23:50.532Z,99.90
2022-09-07T02:26:21.406Z,99.90
2022-09-07T02:28:49.299Z,99.90
2022-09-07T02:31:16.336Z,99.90
2022-09-07T02:33:43.684Z,99.90
2022-09-07T02:36:12.576Z,99.90
2022-09-07T02:38:40.209Z,99.90
2022-09-07T02:41:34.692Z,99.90
2022-09-07T02:44:04.616Z,99.90
2022-09-07T02:46:40.460Z,99.90
2022-09-07T02:49:31.957Z,99.90
2022-09-07T02:52:11.345Z,99.90
2022-09-07T02:54:51.116Z,99.90
2022-09-07T02:57:42.086Z,99.90
2022-09-07T03:00:11.605Z,99.90
2022-09-07T03:02:49.740Z,99.90
2022-09-07T03:05:26.099Z,99.90
2022-09-07T03:08:05.605Z,99.90
2022-09-07T03:10:34.351Z,99.90
2022-09-07T03:13:01.205Z,99.90
2022-09-07T03:15:29.105Z,99.90
2022-09-07T03:17:55.937Z,99.90
2022-09-07T03:20:24.027Z,99.90
2022-09-07T03:22:51.999Z,99.90
2022-09-07T03:25:20.188Z,99.90
2022-09-07T03:27:46.995Z,99.90
2022-09-07T03:30:14.700Z,99.90
2022-09-07T03:32:41.474Z,99.90
2022-09-07T03:35:09.457Z,99.90
2022-09-07T03:37:37.250Z,99.90
2022-09-07T03:40:07.009Z,99.90
2022-09-07T03:42:33.781Z,99.90
2022-09-07T03:45:01.104Z,99.90
2022-09-07T03:47:28.058Z,99.90
2022-09-07T03:49:55.498Z,99.90
2022-09-07T03:52:22.267Z,99.90
2022-09-07T03:54:49.682Z,99.90
2022-09-07T03:57:16.442Z,99.90
2022-09-07T03:59:43.799Z,99.90
2022-09-07T04:02:10.575Z,99.90
2022-09-07T04:04:38.055Z,99.90
2022-09-07T04:07:05.695Z,99.90
2022-09-07T04:09:33.174Z,99.90
2022-09-07T04:11:59.926Z,99.90
2022-09-07T04:14:27.312Z,99.90
2022-09-07T04:16:54.082Z,99.90
2022-09-07T04:19:22.071Z,99.90
2022-09-07T04:21:48.964Z,99.90
2022-09-07T04:24:18.039Z,99.90
2022-09-07T04:26:45.119Z,99.90
2022-09-07T04:29:13.501Z,99.90
2022-09-07T04:31:40.400Z,99.90
2022-09-07T04:34:08.080Z,99.90
2022-09-07T04:36:34.824Z,99.90
2022-09-07T04:39:04.824Z,99.90
2022-09-07T04:41:33.152Z,99.90
2022-09-07T04:44:03.099Z,99.90
2022-09-07T04:46:33.716Z,99.90
2022-09-07T04:49:03.985Z,99.90
2022-09-07T04:51:32.235Z,99.90
2022-09-07T04:54:02.289Z,99.90
2022-09-07T04:56:29.210Z,99.90
2022-09-07T04:58:56.898Z,99.90
2022-09-07T05:01:25.011Z,99.90
2022-09-07T05:03:52.850Z,99.90
2022-09-07T05:06:20.933Z,99.90
2022-09-07T05:08:50.794Z,99.90
2022-09-07T05:11:18.402Z,99.90
2022-09-07T05:13:46.064Z,99.90
2022-09-07T05:16:14.525Z,99.90
2022-09-07T05:18:41.973Z,99.90
2022-09-07T05:21:18.554Z,99.90
2022-09-07T05:23:45.753Z,99.90
2022-09-07T05:26:12.590Z,99.90
2022-09-07T05:28:40.026Z,99.90
2022-09-07T05:36:40.688Z,99.90
2022-09-07T05:39:08.884Z,99.90
2022-09-07T05:41:35.602Z,99.90
2022-09-07T05:46:52.331Z,99.90
2022-09-07T05:49:19.647Z,99.90
2022-09-07T05:51:46.872Z,99.90
2022-09-07T05:54:14.578Z,99.90
2022-09-07T05:56:41.497Z,99.90
2022-09-07T05:59:08.909Z,99.90
2022-09-07T06:01:35.876Z,99.90
2022-09-07T06:04:03.792Z,99.90
2022-09-07T06:06:31.008Z,99.90
2022-09-07T06:08:58.308Z,99.90
2022-09-07T06:11:27.066Z,99.90
2022-09-07T06:13:54.564Z,99.90
2022-09-07T06:16:21.598Z,99.90
2022-09-07T06:18:50.037Z,99.90
2022-09-07T06:21:20.521Z,99.90
2022-09-07T06:23:49.317Z,99.90
2022-09-07T06:26:17.033Z,99.90
2022-09-07T06:28:49.196Z,99.90
2022-09-07T06:31:18.946Z,99.90
2022-09-07T06:33:50.509Z,99.90
2022-09-07T06:36:27.170Z,99.90
2022-09-07T06:38:55.945Z,99.90
2022-09-07T06:44:20.020Z,99.90
2022-09-07T06:49:29.639Z,99.90
2022-09-07T06:51:56.387Z,99.90
2022-09-07T06:57:10.764Z,99.90
2022-09-07T06:59:38.038Z,99.90
2022-09-07T07:02:11.411Z,99.90
2022-09-07T07:04:41.061Z,99.90
2022-09-07T07:07:12.888Z,99.90
2022-09-07T07:09:41.187Z,99.90
2022-09-07T07:12:07.935Z,99.90
2022-09-07T07:14:39.597Z,99.90
2022-09-07T07:17:07.893Z,99.90
2022-09-07T07:19:35.231Z,99.90
2022-09-07T07:24:49.000Z,99.90
2022-09-07T07:27:15.783Z,99.90
2022-09-07T07:29:43.092Z,99.90
2022-09-07T07:32:09.775Z,99.90
2022-09-07T07:34:36.799Z,99.90
2022-09-07T07:37:03.560Z,99.90
2022-09-07T07:42:17.733Z,99.90
2022-09-07T07:44:44.762Z,99.90
2022-09-07T07:47:11.378Z,99.90
2022-09-07T07:49:38.319Z,99.90
2022-09-07T07:54:53.119Z,99.90
2022-09-07T07:57:20.275Z,99.90
2022-09-07T07:59:46.919Z,99.90
2022-09-07T08:02:16.327Z,99.90
2022-09-07T08:04:43.973Z,99.90
2022-09-07T08:07:14.082Z,99.90
2022-09-07T08:09:43.098Z,99.90
2022-09-07T08:12:12.070Z,99.90
2022-09-07T08:14:41.204Z,99.90
2022-09-07T08:17:10.219Z,99.90
2022-09-07T08:19:37.854Z,99.90
2022-09-07T08:22:04.790Z,99.90
2022-09-07T08:24:32.590Z,99.90
2022-09-07T08:26:59.574Z,99.90
2022-09-07T08:29:27.229Z,99.90
2022-09-07T08:31:54.039Z,99.90
2022-09-07T08:34:21.725Z,99.90
2022-09-07T08:36:48.821Z,99.90
2022-09-07T08:39:15.780Z,99.90
2022-09-07T08:42:05.897Z,99.90
2022-09-07T08:44:47.239Z,99.90
2022-09-07T08:47:33.460Z,99.90
2022-09-07T08:50:03.799Z,99.90
2022-09-07T08:52:53.415Z,99.90
2022-09-07T08:55:26.659Z,99.90
2022-09-07T08:58:45.361Z,99.90
2022-09-07T09:01:32.843Z,99.90
2022-09-07T09:04:17.888Z,99.90
2022-09-07T09:07:10.331Z,99.90
2022-09-07T09:09:56.102Z,99.90
2022-09-07T09:12:37.357Z,99.90
2022-09-07T09:15:35.793Z,99.90
2022-09-07T09:18:13.872Z,99.90
2022-09-07T09:20:50.523Z,99.90
2022-09-07T09:23:19.436Z,99.90
2022-09-07T09:26:12.123Z,99.90
2022-09-07T09:28:39.807Z,99.90
2022-09-07T09:31:06.752Z,99.90
2022-09-07T09:33:33.422Z,99.90
2022-09-07T09:36:01.275Z,99.90
2022-09-07T09:38:29.752Z,99.90
2022-09-07T09:40:59.165Z,99.90
2022-09-07T09:43:33.154Z,99.90
2022-09-07T09:46:16.925Z,99.90
2022-09-07T09:48:49.830Z,99.90
2022-09-07T09:54:07.534Z,99.90
2022-09-07T09:56:45.975Z,99.90
2022-09-07T10:05:27.481Z,99.90
2022-09-07T10:07:54.435Z,99.90
2022-09-07T10:10:21.875Z,99.90
2022-09-07T10:12:52.975Z,99.90
2022-09-07T10:15:40.545Z,99.90
2022-09-07T10:18:22.379Z,99.90
2022-09-07T10:20:49.658Z,99.90
2022-09-07T10:23:22.691Z,99.90
2022-09-07T10:25:49.752Z,99.90
2022-09-07T10:28:24.473Z,99.90
2022-09-07T10:31:03.796Z,99.90
2022-09-07T10:37:05.817Z,99.90
2022-09-07T10:39:43.620Z,99.90
2022-09-07T10:42:28.942Z,99.90
2022-09-07T10:45:03.293Z,99.90
2022-09-07T10:48:02.823Z,99.90
2022-09-07T10:50:50.981Z,99.90
2022-09-07T10:54:29.292Z,99.90
2022-09-07T10:56:33.369Z,99.90
2022-09-07T10:59:18.739Z,99.90
2022-09-07T11:02:04.021Z,99.90
2022-09-07T11:04:57.525Z,99.90
2022-09-07T11:07:51.968Z,99.90
2022-09-07T11:10:46.014Z,99.90
2022-09-07T11:13:18.687Z,99.90
2022-09-07T11:15:57.037Z,99.90
2022-09-07T11:18:50.906Z,99.90
2022-09-07T11:24:26.130Z,99.90
2022-09-07T11:27:01.039Z,99.90
2022-09-07T11:29:33.467Z,99.90
2022-09-07T11:32:04.642Z,99.90
2022-09-07T11:34:38.930Z,99.90
2022-09-07T11:37:20.555Z,99.90
2022-09-07T11:40:11.798Z,99.90
2022-09-07T11:42:46.755Z,99.90
2022-09-07T11:45:28.220Z,99.90
2022-09-07T11:48:07.595Z,99.90
2022-09-07T11:50:39.160Z,99.90
2022-09-07T11:53:19.947Z,99.90
2022-09-07T11:55:54.360Z,99.90
2022-09-07T11:58:29.454Z,99.90
2022-09-07T12:01:17.564Z,99.90
2022-09-07T12:04:16.592Z,99.90
2022-09-07T12:07:16.840Z,99.90
2022-09-07T12:10:01.963Z,99.90
2022-09-07T12:12:34.777Z,99.90
2022-09-07T12:15:18.460Z,99.90
2022-09-07T12:17:50.997Z,99.90
2022-09-07T12:20:20.870Z,99.90
2022-09-07T12:22:59.813Z,99.90
2022-09-07T12:25:30.870Z,99.90
2022-09-07T12:27:58.265Z,99.90
2022-09-07T12:30:24.786Z,99.90
2022-09-07T12:32:53.938Z,99.90
2022-09-07T12:35:33.287Z,99.90
2022-09-07T12:38:01.859Z,99.90
2022-09-07T12:40:32.993Z,99.90
2022-09-07T12:43:15.381Z,99.90
2022-09-07T12:45:42.105Z,99.90
2022-09-07T12:48:35.202Z,99.90
2022-09-07T12:54:34.677Z,99.90
2022-09-07T12:57:30.028Z,99.90
2022-09-07T12:59:59.447Z,99.90
2022-09-07T13:02:59.673Z,99.90
2022-09-07T13:05:55.959Z,99.90
2022-09-07T13:09:00.745Z,99.90
2022-09-07T13:11:34.282Z,99.90
2022-09-07T13:14:05.103Z,99.90
2022-09-07T13:19:46.451Z,99.90
2022-09-07T13:22:31.149Z,99.90
2022-09-07T13:25:23.509Z,99.90
2022-09-07T13:28:13.828Z,99.90
2022-09-07T13:30:53.341Z,99.90
2022-09-07T13:33:43.703Z,99.40
2022-09-07T13:36:21.876Z,99.40
2022-09-07T13:38:50.908Z,99.30
2022-09-07T13:41:21.826Z,98.70
2022-09-07T13:43:50.484Z,99.30
2022-09-07T13:46:53.227Z,98.50
2022-09-07T13:49:55.872Z,99.60
2022-09-07T13:52:42.041Z,99.60
2022-09-07T13:55:25.965Z,99.90
2022-09-07T13:58:16.963Z,98.50
2022-09-07T14:01:12.967Z,99.90
2022-09-07T14:03:44.920Z,99.90
2022-09-07T14:06:20.577Z,99.50
2022-09-07T14:08:53.343Z,97.90
2022-09-07T14:11:24.196Z,97.60
2022-09-07T14:14:15.148Z,98.30
2022-09-07T14:16:45.548Z,99.10
2022-09-07T14:19:18.464Z,98.80
2022-09-07T14:21:57.456Z,98.60
2022-09-07T14:24:32.558Z,98.00
2022-09-07T14:27:00.143Z,98.30
2022-09-07T14:29:30.558Z,97.80
2022-09-07T14:31:59.197Z,97.90
2022-09-07T14:34:31.245Z,98.00
2022-09-07T14:37:03.045Z,99.00
2022-09-07T14:39:34.428Z,97.80
2022-09-07T14:42:03.639Z,97.30
2022-09-07T14:44:38.717Z,97.50
2022-09-07T14:47:29.678Z,98.10
2022-09-07T14:50:04.949Z,97.70
2022-09-07T14:52:42.352Z,98.10
2022-09-07T14:55:28.478Z,98.00
2022-09-07T14:58:12.859Z,98.10
2022-09-07T15:00:45.962Z,97.40
2022-09-07T15:03:27.487Z,98.20
2022-09-07T15:06:00.775Z,98.80
2022-09-07T15:08:42.590Z,99.10
2022-09-07T15:11:34.658Z,99.40
2022-09-07T15:14:07.783Z,99.20
2022-09-07T15:16:38.941Z,99.60
2022-09-07T15:19:18.424Z,99.90
2022-09-07T15:21:45.473Z,99.90
2022-09-07T15:24:12.691Z,99.90
2022-09-07T15:27:04.371Z,99.90
2022-09-07T15:29:32.091Z,99.90
2022-09-07T15:32:04.302Z,99.50
2022-09-07T15:34:32.686Z,99.40
2022-09-07T15:37:01.859Z,99.90
2022-09-07T15:39:29.784Z,99.90
2022-09-07T15:41:58.917Z,99.70
2022-09-07T15:44:28.455Z,99.30
2022-09-07T15:49:49.478Z,99.70
2022-09-07T15:52:17.217Z,99.30
2022-09-07T15:54:44.005Z,99.80
2022-09-07T15:59:58.848Z,99.90
2022-09-07T16:05:13.696Z,99.90
2022-09-07T16:10:30.980Z,99.70
2022-09-07T16:13:01.757Z,99.80
2022-09-07T16:15:29.499Z,99.90
2022-09-07T16:17:56.860Z,99.90
2022-09-07T16:20:23.562Z,99.90
2022-09-07T16:25:41.634Z,99.90
2022-09-07T16:28:09.898Z,99.90
2022-09-07T16:30:40.464Z,99.90
2022-09-07T16:33:07.947Z,99.90
2022-09-07T16:35:34.687Z,99.90
2022-09-07T16:40:50.677Z,99.90
2022-09-07T16:43:18.153Z,99.90
2022-09-07T16:48:34.019Z,99.90
2022-09-07T16:51:02.569Z,99.90
2022-09-07T16:53:31.388Z,99.90
2022-09-07T16:56:18.338Z,99.90
2022-09-07T16:59:01.008Z,99.90
2022-09-07T17:01:30.331Z,99.90
2022-09-07T17:03:58.227Z,99.90
2022-09-07T17:06:27.621Z,99.90
2022-09-07T17:08:55.256Z,99.90
2022-09-07T17:11:25.557Z,99.90
2022-09-07T17:13:53.444Z,99.90
2022-09-07T17:16:35.444Z,99.90
2022-09-07T17:21:52.017Z,99.90
2022-09-07T17:24:19.780Z,99.90
2022-09-07T17:26:47.428Z,99.90
2022-09-07T17:29:14.442Z,99.90
2022-09-07T17:34:31.800Z,99.90
2022-09-07T17:37:00.637Z,99.90
2022-09-07T17:39:28.048Z,99.90
2022-09-07T17:41:55.403Z,99.90
2022-09-07T17:44:23.262Z,99.90
2022-09-07T17:46:50.931Z,99.90
2022-09-07T17:49:17.979Z,99.90
2022-09-07T17:51:45.629Z,99.90
2022-09-07T17:54:15.499Z,99.90
2022-09-07T17:56:43.722Z,99.90
2022-09-07T18:01:58.461Z,99.90
2022-09-07T18:04:25.267Z,99.90
2022-09-07T18:06:53.886Z,99.90
2022-09-07T18:09:21.609Z,99.90
2022-09-07T18:11:49.635Z,99.90
2022-09-07T18:14:18.383Z,99.90
2022-09-07T18:16:46.851Z,99.90
2022-09-07T18:19:14.335Z,99.90
2022-09-07T18:21:42.687Z,99.90
2022-09-07T18:24:16.825Z,99.90
2022-09-07T18:26:44.713Z,99.90
2022-09-07T18:29:28.187Z,99.90
2022-09-07T18:31:57.024Z,99.90
2022-09-07T18:34:23.875Z,99.90
2022-09-07T18:36:51.160Z,99.90
2022-09-07T18:39:18.137Z,99.90
2022-09-07T18:41:45.417Z,99.90
2022-09-07T18:46:58.961Z,99.90
2022-09-07T18:49:25.577Z,99.90
2022-09-07T18:54:41.537Z,99.90
2022-09-07T18:57:08.588Z,99.90
2022-09-07T18:59:35.681Z,99.90
2022-09-07T19:02:04.882Z,99.90
2022-09-07T19:07:20.933Z,99.90
2022-09-07T19:09:48.353Z,99.90
2022-09-07T19:12:15.726Z,99.90
2022-09-07T19:14:42.635Z,99.90
2022-09-07T19:17:12.494Z,99.90
2022-09-07T19:19:40.454Z,99.90
2022-09-07T19:22:07.050Z,99.90
2022-09-07T19:24:34.156Z,99.90
2022-09-07T19:27:01.231Z,99.90
2022-09-07T19:29:29.323Z,99.90
2022-09-07T19:32:04.844Z,99.90
2022-09-07T19:34:41.435Z,99.90
2022-09-07T19:37:10.600Z,99.90
2022-09-07T19:39:38.204Z,99.90
2022-09-07T19:42:05.871Z,99.90
2022-09-07T19:44:33.589Z,99.90
2022-09-07T19:47:00.721Z,99.90
2022-09-07T19:49:28.780Z,99.90
2022-09-07T19:51:55.526Z,99.90
2022-09-07T19:54:22.961Z,99.90
2022-09-07T19:56:49.609Z,99.90
2022-09-07T19:59:19.460Z,99.90
2022-09-07T20:01:48.105Z,99.90
2022-09-07T20:04:20.549Z,99.90
2022-09-07T20:06:49.610Z,99.90
2022-09-07T20:09:20.029Z,99.90
2022-09-07T20:11:47.699Z,99.90
2022-09-07T20:14:16.346Z,99.90
2022-09-07T20:16:43.516Z,99.90
2022-09-07T20:19:14.849Z,99.90
2022-09-07T20:21:42.406Z,99.90
2022-09-07T20:24:12.073Z,99.90
2022-09-07T20:26:38.743Z,99.90
2022-09-07T20:31:53.913Z,99.90
2022-09-07T20:34:21.255Z,99.90
2022-09-07T20:36:51.816Z,99.90
2022-09-07T20:39:19.970Z,99.90
2022-09-07T20:41:46.979Z,99.90
2022-09-07T20:44:16.000Z,99.90
2022-09-07T20:46:43.154Z,99.90
2022-09-07T20:49:10.812Z,99.90
2022-09-07T20:51:37.480Z,99.90
2022-09-07T20:54:05.048Z,99.90
2022-09-07T20:56:31.716Z,99.90
2022-09-07T20:59:01.704Z,99.90
2022-09-07T21:01:30.326Z,99.90
2022-09-07T21:03:59.112Z,99.90
2022-09-07T21:06:27.361Z,99.90
2022-09-07T21:08:57.107Z,99.90
2022-09-07T21:11:32.747Z,99.90
2022-09-07T21:14:07.156Z,99.90
2022-09-07T21:16:35.852Z,99.90
2022-09-07T21:19:04.120Z,99.90
2022-09-07T21:21:38.997Z,99.90
2022-09-07T21:24:07.289Z,99.90
2022-09-07T21:26:33.968Z,99.90
2022-09-07T21:29:03.472Z,99.90
2022-09-07T21:31:31.664Z,99.90
2022-09-07T21:34:01.149Z,99.90
2022-09-07T21:36:29.003Z,99.90
2022-09-07T21:38:55.705Z,99.90
2022-09-07T21:41:25.002Z,99.90
2022-09-07T21:43:59.067Z,99.90
2022-09-07T21:46:27.421Z,99.90
2022-09-07T21:48:55.523Z,99.90
2022-09-07T21:51:23.661Z,99.90
2022-09-07T21:53:57.026Z,99.90
2022-09-07T21:56:25.093Z,99.90
2022-09-07T21:58:56.303Z,99.90
2022-09-07T22:01:25.411Z,99.90
2022-09-07T22:03:57.867Z,99.90
2022-09-07T22:06:28.094Z,99.90
2022-09-07T22:08:55.617Z,99.90
2022-09-07T22:11:24.571Z,99.90
2022-09-07T22:14:03.064Z,99.90
2022-09-07T22:16:33.131Z,99.90
2022-09-07T22:19:00.075Z,99.90
2022-09-07T22:21:28.735Z,99.90
2022-09-07T22:23:58.903Z,99.90
2022-09-07T22:26:28.323Z,99.90
2022-09-07T22:28:55.515Z,99.90
2022-09-07T22:31:28.524Z,99.90
2022-09-07T22:33:56.738Z,99.90
2022-09-07T22:36:27.599Z,99.90
2022-09-07T22:38:56.159Z,99.90
2022-09-07T22:41:26.044Z,99.90
2022-09-07T22:43:52.773Z,99.90
2022-09-07T22:46:22.544Z,99.90
2022-09-07T22:48:49.786Z,99.90
2022-09-07T22:51:17.716Z,99.90
2022-09-07T22:53:44.848Z,99.90
2022-09-07T22:56:17.312Z,99.90
2022-09-07T22:58:56.108Z,99.90
2022-09-07T23:01:24.665Z,99.90
2022-09-07T23:03:51.371Z,99.90
2022-09-07T23:06:23.964Z,99.90
2022-09-07T23:08:52.080Z,99.90
2022-09-07T23:11:19.993Z,99.90
2022-09-07T23:13:53.425Z,99.90
2022-09-07T23:16:22.293Z,99.90
2022-09-07T23:18:49.597Z,99.90
2022-09-07T23:21:17.061Z,99.90
2022-09-07T23:23:44.194Z,99.90
2022-09-07T23:26:11.563Z,99.90
2022-09-07T23:28:38.133Z,99.90
2022-09-07T23:31:05.587Z,99.90
2022-09-07T23:33:32.271Z,99.90
2022-09-07T23:36:05.121Z,99.90
2022-09-07T23:38:32.349Z,99.90
2022-09-07T23:41:00.525Z,99.90
2022-09-07T23:43:28.666Z,99.90
2022-09-07T23:45:56.497Z,99.90
2022-09-07T23:48:23.512Z,99.90
2022-09-07T23:50:50.832Z,99.90
2022-09-07T23:53:17.919Z,99.90
2022-09-07T23:55:47.951Z,99.90
2022-09-07T23:58:14.531Z,99.90
